createdAt,value
2023-04-27T00:00:40.590Z,76.98
2023-04-27T00:03:07.365Z,76.82
2023-04-27T00:05:39.387Z,77.50
2023-04-27T00:08:06.994Z,77.59
2023-04-27T00:10:33.443Z,77.04
2023-04-27T00:13:00.612Z,76.95
2023-04-27T00:15:27.734Z,77.07
2023-04-27T00:17:54.938Z,77.00
2023-04-27T00:20:21.460Z,77.00
2023-04-27T00:22:47.885Z,76.78
2023-04-27T00:25:14.427Z,76.99
2023-04-27T00:27:41.235Z,76.68
2023-04-27T00:30:08.548Z,76.44
2023-04-27T00:32:35.035Z,76.00
2023-04-27T00:35:01.524Z,76.73
2023-04-27T00:37:28.009Z,76.57
2023-04-27T00:39:54.435Z,76.59
2023-04-27T00:42:21.535Z,77.27
2023-04-27T00:44:47.922Z,77.74
2023-04-27T00:47:16.453Z,78.09
2023-04-27T00:49:42.921Z,78.64
2023-04-27T00:52:09.320Z,78.97
2023-04-27T00:54:36.038Z,79.02
2023-04-27T00:57:04.171Z,78.94
2023-04-27T00:59:30.829Z,78.67
2023-04-27T01:01:57.684Z,78.77
2023-04-27T01:04:25.012Z,78.67
2023-04-27T01:06:51.751Z,78.35
2023-04-27T01:09:20.018Z,78.58
2023-04-27T01:11:47.027Z,79.15
2023-04-27T01:14:13.543Z,78.67
2023-04-27T01:16:40.663Z,78.79
2023-04-27T01:19:08.865Z,79.03
2023-04-27T01:21:35.745Z,79.22
2023-04-27T01:24:04.736Z,78.79
2023-04-27T01:26:31.562Z,79.12
2023-04-27T01:28:58.120Z,79.02
2023-04-27T01:31:24.661Z,79.28
2023-04-27T01:33:51.473Z,79.37
2023-04-27T01:36:17.907Z,79.42
2023-04-27T01:38:44.620Z,79.73
2023-04-27T01:41:11.178Z,79.82
2023-04-27T01:43:37.851Z,79.42
2023-04-27T01:46:08.773Z,79.99
2023-04-27T01:48:36.068Z,79.95
2023-04-27T01:51:03.629Z,79.54
2023-04-27T01:53:30.682Z,79.93
2023-04-27T01:55:57.658Z,80.39
2023-04-27T01:58:24.074Z,80.25
2023-04-27T02:00:50.638Z,80.15
2023-04-27T02:03:17.185Z,80.46
2023-04-27T02:05:43.886Z,80.26
2023-04-27T02:08:10.468Z,80.29
2023-04-27T02:10:36.990Z,79.81
2023-04-27T02:13:03.660Z,79.79
2023-04-27T02:15:30.326Z,79.60
2023-04-27T02:17:57.368Z,79.42
2023-04-27T02:20:23.955Z,79.28
2023-04-27T02:22:50.367Z,78.97
2023-04-27T02:25:16.968Z,78.87
2023-04-27T02:27:43.603Z,78.62
2023-04-27T02:30:11.845Z,78.58
2023-04-27T02:32:58.812Z,78.31
2023-04-27T02:35:25.367Z,78.04
2023-04-27T02:37:51.985Z,77.74
2023-04-27T02:40:18.429Z,77.67
2023-04-27T02:42:44.832Z,77.39
2023-04-27T02:45:11.591Z,76.94
2023-04-27T02:47:38.174Z,76.53
2023-04-27T02:50:05.152Z,76.36
2023-04-27T02:52:31.585Z,76.31
2023-04-27T02:54:58.029Z,76.50
2023-04-27T02:57:24.489Z,76.13
2023-04-27T02:59:51.102Z,76.14
2023-04-27T03:02:17.711Z,76.05
2023-04-27T03:04:44.372Z,75.88
2023-04-27T03:07:12.346Z,76.12
2023-04-27T03:09:38.913Z,75.88
2023-04-27T03:12:05.687Z,76.29
2023-04-27T03:14:32.208Z,76.30
2023-04-27T03:16:58.688Z,76.42
2023-04-27T03:19:25.181Z,76.65
2023-04-27T03:21:51.700Z,76.84
2023-04-27T03:24:18.173Z,77.30
2023-04-27T03:26:44.611Z,77.86
2023-04-27T03:29:11.053Z,78.01
2023-04-27T03:31:37.534Z,78.12
2023-04-27T03:34:04.024Z,78.36
2023-04-27T03:36:32.067Z,78.73
2023-04-27T03:38:58.771Z,78.76
2023-04-27T03:41:25.604Z,78.92
2023-04-27T03:43:53.520Z,80.00
2023-04-27T03:46:28.429Z,80.15
2023-04-27T03:48:54.940Z,81.19
2023-04-27T03:51:21.446Z,81.05
2023-04-27T03:53:47.907Z,81.35
2023-04-27T03:56:14.492Z,80.86
2023-04-27T03:58:40.883Z,80.72
2023-04-27T04:01:10.143Z,81.06
2023-04-27T04:03:37.391Z,81.77
2023-04-27T04:06:03.994Z,81.51
2023-04-27T04:08:30.725Z,81.78
2023-04-27T04:10:57.231Z,81.95
2023-04-27T04:13:23.822Z,81.80
2023-04-27T04:15:50.315Z,81.63
2023-04-27T04:18:16.743Z,81.20
2023-04-27T04:20:43.278Z,81.29
2023-04-27T04:23:09.684Z,81.22
2023-04-27T04:25:36.304Z,81.31
2023-04-27T04:28:02.962Z,81.40
2023-04-27T04:30:29.591Z,81.77
2023-04-27T04:32:56.122Z,81.90
2023-04-27T04:35:22.550Z,81.66
2023-04-27T04:37:49.107Z,81.88
2023-04-27T04:40:15.621Z,81.36
2023-04-27T04:42:42.099Z,81.36
2023-04-27T04:45:08.929Z,81.68
2023-04-27T04:47:35.505Z,81.58
2023-04-27T04:50:02.454Z,81.19
2023-04-27T04:52:29.067Z,80.99
2023-04-27T04:54:55.559Z,80.84
2023-04-27T04:57:22.230Z,80.71
2023-04-27T04:59:48.815Z,80.41
2023-04-27T05:02:15.438Z,80.04
2023-04-27T05:04:41.964Z,80.36
2023-04-27T05:07:08.637Z,80.07
2023-04-27T05:09:35.309Z,80.58
2023-04-27T05:12:02.400Z,80.60
2023-04-27T05:14:29.106Z,80.85
2023-04-27T05:16:55.785Z,80.87
2023-04-27T05:19:22.278Z,81.19
2023-04-27T05:21:48.706Z,81.57
2023-04-27T05:24:15.381Z,81.36
2023-04-27T05:26:43.339Z,81.64
2023-04-27T05:29:09.756Z,81.74
2023-04-27T05:31:36.252Z,81.73
2023-04-27T05:34:02.839Z,81.55
2023-04-27T05:36:29.319Z,81.19
2023-04-27T05:38:56.084Z,80.60
2023-04-27T05:41:23.748Z,80.08
2023-04-27T05:43:50.296Z,80.08
2023-04-27T05:46:16.863Z,79.98
2023-04-27T05:48:43.399Z,79.40
2023-04-27T05:51:10.006Z,79.39
2023-04-27T05:53:36.521Z,79.07
2023-04-27T05:56:04.432Z,78.54
2023-04-27T05:58:31.273Z,77.80
2023-04-27T06:00:57.805Z,77.28
2023-04-27T06:03:24.584Z,77.18
2023-04-27T06:05:59.030Z,77.00
2023-04-27T06:08:26.311Z,75.46
2023-04-27T06:10:53.311Z,75.06
2023-04-27T06:13:20.713Z,74.64
2023-04-27T06:15:47.729Z,74.49
2023-04-27T06:18:14.512Z,74.01
2023-04-27T06:20:41.973Z,74.05
2023-04-27T06:23:08.490Z,74.16
2023-04-27T06:25:37.406Z,73.86
2023-04-27T06:28:03.909Z,71.91
2023-04-27T06:30:30.572Z,71.72
2023-04-27T06:32:57.042Z,71.19
2023-04-27T06:35:23.603Z,70.11
2023-04-27T06:37:50.203Z,69.49
2023-04-27T06:40:16.884Z,68.95
2023-04-27T06:42:43.456Z,68.83
2023-04-27T06:45:10.665Z,68.89
2023-04-27T06:47:37.116Z,68.44
2023-04-27T06:50:04.211Z,68.22
2023-04-27T06:52:33.145Z,68.11
2023-04-27T06:54:59.737Z,67.96
2023-04-27T06:57:26.853Z,67.15
2023-04-27T06:59:53.397Z,66.87
2023-04-27T07:02:19.916Z,66.92
2023-04-27T07:04:46.800Z,65.58
2023-04-27T07:07:13.378Z,65.42
2023-04-27T07:09:39.883Z,64.80
2023-04-27T07:12:06.578Z,64.61
2023-04-27T07:14:33.800Z,63.72
2023-04-27T07:17:00.297Z,63.70
2023-04-27T07:19:26.734Z,63.61
2023-04-27T07:21:53.173Z,62.22
2023-04-27T07:24:20.381Z,61.31
2023-04-27T07:26:46.788Z,60.75
2023-04-27T07:29:26.533Z,60.36
2023-04-27T07:31:55.752Z,60.20
2023-04-27T07:34:22.752Z,58.88
2023-04-27T07:36:49.310Z,59.51
2023-04-27T07:39:15.878Z,58.73
2023-04-27T07:41:42.880Z,58.61
2023-04-27T07:44:09.284Z,57.96
2023-04-27T07:46:35.750Z,58.18
2023-04-27T07:49:02.500Z,58.61
2023-04-27T07:51:29.333Z,57.15
2023-04-27T07:53:56.386Z,57.64
2023-04-27T07:56:22.893Z,56.87
2023-04-27T07:58:49.417Z,56.56
2023-04-27T08:01:16.937Z,56.12
2023-04-27T08:03:44.630Z,55.61
2023-04-27T08:06:12.158Z,55.24
2023-04-27T08:08:38.881Z,54.27
2023-04-27T08:11:09.199Z,53.99
2023-04-27T08:13:36.163Z,55.60
2023-04-27T08:16:02.734Z,51.71
2023-04-27T08:18:29.168Z,52.25
2023-04-27T08:20:55.714Z,52.08
2023-04-27T08:23:22.110Z,51.07
2023-04-27T08:25:48.737Z,49.93
2023-04-27T08:28:15.426Z,49.49
2023-04-27T08:30:42.732Z,49.92
2023-04-27T08:33:09.259Z,49.70
2023-04-27T08:35:36.131Z,49.38
2023-04-27T08:38:02.562Z,50.32
2023-04-27T08:40:29.470Z,48.40
2023-04-27T08:42:58.262Z,47.98
2023-04-27T08:45:26.301Z,48.24
2023-04-27T08:47:52.807Z,47.58
2023-04-27T08:50:19.610Z,48.80
2023-04-27T08:52:46.868Z,47.64
2023-04-27T08:55:15.844Z,46.09
2023-04-27T08:57:54.209Z,46.50
2023-04-27T09:00:21.066Z,46.42
2023-04-27T09:02:48.675Z,46.98
2023-04-27T09:05:17.157Z,46.85
2023-04-27T09:07:55.325Z,47.03
2023-04-27T09:10:23.185Z,47.57
2023-04-27T09:13:03.910Z,47.65
2023-04-27T09:15:40.900Z,47.51
2023-04-27T09:18:12.365Z,47.40
2023-04-27T09:20:46.815Z,47.53
2023-04-27T09:23:46.495Z,46.64
2023-04-27T09:26:23.307Z,45.99
2023-04-27T09:28:52.488Z,45.43
2023-04-27T09:31:20.631Z,44.68
2023-04-27T09:33:55.487Z,42.99
2023-04-27T09:36:22.600Z,42.82
2023-04-27T09:38:51.430Z,39.59
2023-04-27T09:41:18.838Z,40.25
2023-04-27T09:43:46.249Z,39.56
2023-04-27T09:46:14.308Z,39.79
2023-04-27T09:48:41.386Z,39.60
2023-04-27T09:51:08.167Z,38.12
2023-04-27T09:54:00.385Z,39.28
2023-04-27T09:56:46.530Z,40.17
2023-04-27T09:59:31.601Z,40.43
2023-04-27T10:02:09.925Z,38.77
2023-04-27T10:04:57.946Z,40.08
2023-04-27T10:07:27.535Z,38.94
2023-04-27T10:09:53.966Z,38.52
2023-04-27T10:12:28.406Z,39.37
2023-04-27T10:14:59.575Z,39.92
2023-04-27T10:17:31.588Z,39.93
2023-04-27T10:20:03.034Z,39.25
2023-04-27T10:22:50.145Z,39.69
2023-04-27T10:25:18.915Z,39.80
2023-04-27T10:27:59.853Z,38.94
2023-04-27T10:30:32.454Z,38.46
2023-04-27T10:33:04.159Z,37.85
2023-04-27T10:35:34.658Z,38.37
2023-04-27T10:38:15.272Z,39.54
2023-04-27T10:40:45.318Z,38.50
2023-04-27T10:43:16.274Z,38.60
2023-04-27T10:45:43.961Z,36.85
2023-04-27T10:48:16.539Z,36.80
2023-04-27T10:50:44.814Z,36.40
2023-04-27T10:53:11.583Z,36.97
2023-04-27T10:55:38.106Z,38.73
2023-04-27T10:58:04.781Z,40.17
2023-04-27T11:00:36.231Z,40.53
2023-04-27T11:03:12.145Z,41.06
2023-04-27T11:05:38.758Z,41.10
2023-04-27T11:08:10.440Z,41.44
2023-04-27T11:10:47.344Z,41.45
2023-04-27T11:13:16.048Z,41.45
2023-04-27T11:15:46.649Z,40.94
2023-04-27T11:18:13.489Z,40.66
2023-04-27T11:20:40.042Z,39.11
2023-04-27T11:23:07.580Z,38.29
2023-04-27T11:25:34.168Z,37.30
2023-04-27T11:28:00.671Z,37.49
2023-04-27T11:30:27.130Z,38.33
2023-04-27T11:32:54.318Z,37.99
2023-04-27T11:35:31.965Z,37.65
2023-04-27T11:37:59.510Z,37.21
2023-04-27T11:40:27.225Z,37.34
2023-04-27T11:42:58.657Z,37.60
2023-04-27T11:45:28.049Z,38.13
2023-04-27T11:47:54.754Z,37.96
2023-04-27T11:50:24.610Z,39.24
2023-04-27T11:52:51.638Z,39.38
2023-04-27T11:55:20.871Z,40.52
2023-04-27T11:57:47.497Z,38.89
2023-04-27T12:00:15.413Z,39.36
2023-04-27T12:02:43.624Z,38.93
2023-04-27T12:05:12.466Z,37.86
2023-04-27T12:07:39.613Z,37.49
2023-04-27T12:10:07.771Z,38.14
2023-04-27T12:12:34.328Z,36.97
2023-04-27T12:15:01.338Z,37.72
2023-04-27T12:17:27.873Z,38.01
2023-04-27T12:19:54.385Z,37.94
2023-04-27T12:22:21.060Z,38.14
2023-04-27T12:24:47.520Z,38.90
2023-04-27T12:27:13.952Z,38.93
2023-04-27T12:29:40.439Z,39.20
2023-04-27T12:32:06.857Z,40.12
2023-04-27T12:34:33.403Z,40.12
2023-04-27T12:36:59.883Z,40.51
2023-04-27T12:39:26.741Z,40.85
2023-04-27T12:41:54.060Z,40.92
2023-04-27T12:44:21.551Z,41.06
2023-04-27T12:46:48.442Z,42.46
2023-04-27T12:49:15.395Z,42.42
2023-04-27T12:51:42.085Z,42.31
2023-04-27T12:54:10.638Z,42.32
2023-04-27T12:56:37.105Z,42.62
2023-04-27T12:59:04.138Z,44.44
2023-04-27T13:01:31.498Z,45.69
2023-04-27T13:04:03.478Z,47.54
2023-04-27T13:06:32.018Z,48.90
2023-04-27T13:08:59.813Z,51.91
2023-04-27T13:11:27.076Z,51.59
2023-04-27T13:13:54.885Z,50.57
2023-04-27T13:16:22.764Z,54.84
2023-04-27T13:18:51.929Z,53.96
2023-04-27T13:21:18.530Z,54.09
2023-04-27T13:23:44.916Z,55.02
2023-04-27T13:26:11.731Z,55.43
2023-04-27T13:28:38.205Z,54.55
2023-04-27T13:31:05.543Z,53.99
2023-04-27T13:33:44.994Z,53.11
2023-04-27T13:36:12.858Z,53.89
2023-04-27T13:38:39.940Z,52.99
2023-04-27T13:41:06.732Z,52.13
2023-04-27T13:43:33.328Z,53.02
2023-04-27T13:46:01.777Z,53.04
2023-04-27T13:48:29.544Z,51.63
2023-04-27T13:50:56.258Z,50.91
2023-04-27T13:53:25.795Z,49.56
2023-04-27T13:55:53.997Z,50.21
2023-04-27T13:58:20.816Z,49.13
2023-04-27T14:00:48.349Z,48.85
2023-04-27T14:03:16.498Z,48.38
2023-04-27T14:05:44.475Z,47.97
2023-04-27T14:08:11.706Z,46.61
2023-04-27T14:10:38.690Z,45.44
2023-04-27T14:13:05.925Z,44.81
2023-04-27T14:15:36.873Z,43.42
2023-04-27T14:18:05.494Z,44.46
2023-04-27T14:20:32.143Z,43.92
2023-04-27T14:22:59.276Z,43.06
2023-04-27T14:25:25.907Z,43.98
2023-04-27T14:27:52.286Z,42.84
2023-04-27T14:30:18.838Z,43.48
2023-04-27T14:32:45.374Z,42.35
2023-04-27T14:35:11.880Z,42.60
2023-04-27T14:37:38.347Z,42.87
2023-04-27T14:40:06.850Z,44.11
2023-04-27T14:42:33.460Z,44.13
2023-04-27T14:44:59.907Z,44.10
2023-04-27T14:47:26.811Z,44.28
2023-04-27T14:49:53.364Z,44.67
2023-04-27T14:52:19.787Z,44.42
2023-04-27T14:54:46.316Z,44.51
2023-04-27T14:57:12.858Z,45.25
2023-04-27T14:59:39.378Z,45.15
2023-04-27T15:02:05.861Z,45.44
2023-04-27T15:04:35.217Z,45.67
2023-04-27T15:07:01.807Z,46.72
2023-04-27T15:09:28.319Z,46.86
2023-04-27T15:11:54.725Z,47.23
2023-04-27T15:14:21.168Z,47.04
2023-04-27T15:16:47.560Z,46.76
2023-04-27T15:19:14.159Z,47.05
2023-04-27T15:21:40.752Z,46.89
2023-04-27T15:24:07.230Z,47.28
2023-04-27T15:26:33.768Z,47.27
2023-04-27T15:29:00.800Z,47.56
2023-04-27T15:31:27.276Z,48.02
2023-04-27T15:33:54.635Z,47.03
2023-04-27T15:36:22.904Z,47.24
2023-04-27T15:38:50.417Z,47.29
2023-04-27T15:41:16.931Z,47.59
2023-04-27T15:43:43.341Z,47.28
2023-04-27T15:46:10.223Z,47.43
2023-04-27T15:48:36.710Z,47.17
2023-04-27T15:51:03.915Z,46.73
2023-04-27T15:53:30.470Z,46.81
2023-04-27T15:55:56.943Z,48.06
2023-04-27T15:58:23.366Z,47.62
2023-04-27T16:00:49.807Z,48.02
2023-04-27T16:03:16.390Z,48.08
2023-04-27T16:05:43.035Z,47.79
2023-04-27T16:08:09.452Z,48.47
2023-04-27T16:10:35.996Z,48.42
2023-04-27T16:13:02.470Z,47.26
2023-04-27T16:15:28.874Z,47.04
2023-04-27T16:17:55.613Z,46.76
2023-04-27T16:20:22.617Z,47.28
2023-04-27T16:22:49.051Z,47.24
2023-04-27T16:25:15.933Z,45.74
2023-04-27T16:27:43.432Z,46.94
2023-04-27T16:30:10.047Z,47.20
2023-04-27T16:32:37.632Z,47.66
2023-04-27T16:35:04.391Z,47.41
2023-04-27T16:37:30.928Z,47.90
2023-04-27T16:40:01.201Z,48.30
2023-04-27T16:42:27.882Z,48.83
2023-04-27T16:44:54.725Z,48.73
2023-04-27T16:47:21.331Z,48.12
2023-04-27T16:49:47.929Z,48.89
2023-04-27T16:52:14.474Z,49.37
2023-04-27T16:54:40.915Z,49.25
2023-04-27T16:57:07.777Z,49.41
2023-04-27T16:59:34.465Z,49.43
2023-04-27T17:02:12.516Z,49.23
2023-04-27T17:04:47.781Z,49.40
2023-04-27T17:07:14.885Z,49.22
2023-04-27T17:09:41.717Z,49.80
2023-04-27T17:12:10.875Z,50.12
2023-04-27T17:14:38.436Z,50.17
2023-04-27T17:17:05.975Z,51.13
2023-04-27T17:19:32.399Z,51.05
2023-04-27T17:21:58.884Z,51.74
2023-04-27T17:24:25.513Z,52.31
2023-04-27T17:26:52.143Z,52.84
2023-04-27T17:29:18.616Z,53.09
2023-04-27T17:31:45.110Z,53.88
2023-04-27T17:34:11.948Z,53.29
2023-04-27T17:36:38.573Z,54.01
2023-04-27T17:39:05.020Z,53.82
2023-04-27T17:41:32.825Z,54.30
2023-04-27T17:44:00.160Z,54.28
2023-04-27T17:46:26.832Z,54.44
2023-04-27T17:48:53.351Z,54.52
2023-04-27T17:51:19.838Z,54.06
2023-04-27T17:53:46.372Z,54.31
2023-04-27T17:56:12.813Z,54.40
2023-04-27T17:58:39.302Z,54.09
2023-04-27T18:01:09.194Z,54.21
2023-04-27T18:03:36.377Z,53.99
2023-04-27T18:06:02.966Z,54.57
2023-04-27T18:08:29.650Z,54.83
2023-04-27T18:10:56.192Z,55.26
2023-04-27T18:13:22.765Z,55.30
2023-04-27T18:15:49.518Z,55.82
2023-04-27T18:18:21.170Z,56.07
2023-04-27T18:20:48.509Z,56.16
2023-04-27T18:23:15.186Z,56.70
2023-04-27T18:25:41.720Z,56.71
2023-04-27T18:28:09.323Z,57.09
2023-04-27T18:30:35.776Z,57.88
2023-04-27T18:33:02.331Z,57.97
2023-04-27T18:35:28.783Z,57.98
2023-04-27T18:37:55.266Z,58.45
2023-04-27T18:40:22.556Z,58.89
2023-04-27T18:42:49.959Z,59.53
2023-04-27T18:45:16.476Z,59.71
2023-04-27T18:47:43.620Z,60.19
2023-04-27T18:50:11.112Z,60.61
2023-04-27T18:52:37.553Z,60.79
2023-04-27T18:55:04.980Z,61.43
2023-04-27T18:57:31.838Z,62.06
2023-04-27T18:59:58.494Z,62.27
2023-04-27T19:02:27.372Z,62.54
2023-04-27T19:05:11.568Z,62.84
2023-04-27T19:07:39.784Z,63.41
2023-04-27T19:10:07.245Z,63.95
2023-04-27T19:12:33.767Z,64.40
2023-04-27T19:15:02.265Z,64.80
2023-04-27T19:17:29.151Z,64.89
2023-04-27T19:19:56.050Z,65.24
2023-04-27T19:22:22.809Z,65.61
2023-04-27T19:24:49.220Z,65.94
2023-04-27T19:27:16.107Z,66.01
2023-04-27T19:29:54.183Z,66.39
2023-04-27T19:32:21.555Z,66.62
2023-04-27T19:34:48.619Z,66.67
2023-04-27T19:37:15.091Z,67.27
2023-04-27T19:39:41.770Z,67.41
2023-04-27T19:42:08.332Z,67.73
2023-04-27T19:44:34.960Z,68.15
2023-04-27T19:47:01.354Z,68.17
2023-04-27T19:49:32.628Z,68.82
2023-04-27T19:51:59.925Z,68.05
2023-04-27T19:54:27.045Z,67.99
2023-04-27T19:56:54.309Z,68.48
2023-04-27T19:59:21.038Z,68.67
2023-04-27T20:01:48.299Z,68.91
2023-04-27T20:04:15.472Z,69.38
2023-04-27T20:06:43.281Z,68.90
2023-04-27T20:09:10.025Z,69.35
2023-04-27T20:11:36.477Z,70.07
2023-04-27T20:14:02.965Z,70.15
2023-04-27T20:16:29.706Z,70.69
2023-04-27T20:18:56.127Z,70.38
2023-04-27T20:21:22.673Z,70.59
2023-04-27T20:23:49.339Z,70.96
2023-04-27T20:26:15.912Z,71.78
2023-04-27T20:28:42.965Z,71.93
2023-04-27T20:31:09.600Z,72.21
2023-04-27T20:33:36.247Z,72.43
2023-04-27T20:36:16.208Z,72.82
2023-04-27T20:38:44.196Z,72.82
2023-04-27T20:41:12.294Z,72.82
2023-04-27T20:43:41.563Z,73.01
2023-04-27T20:46:10.093Z,73.33
2023-04-27T20:48:36.593Z,73.46
2023-04-27T20:51:03.255Z,73.82
2023-04-27T20:53:30.070Z,73.65
2023-04-27T20:55:56.949Z,73.92
2023-04-27T20:58:23.753Z,73.70
2023-04-27T21:00:50.727Z,74.30
2023-04-27T21:03:17.440Z,74.65
2023-04-27T21:05:44.060Z,74.58
2023-04-27T21:08:10.571Z,74.86
2023-04-27T21:10:37.243Z,75.07
2023-04-27T21:13:04.081Z,75.42
2023-04-27T21:15:30.946Z,75.61
2023-04-27T21:17:57.458Z,75.75
2023-04-27T21:20:24.072Z,75.67
2023-04-27T21:22:50.503Z,76.05
2023-04-27T21:25:16.941Z,75.89
2023-04-27T21:27:43.820Z,75.90
2023-04-27T21:30:10.987Z,75.58
2023-04-27T21:32:37.714Z,75.88
2023-04-27T21:35:04.454Z,76.09
2023-04-27T21:37:31.256Z,75.93
2023-04-27T21:39:57.836Z,75.92
2023-04-27T21:42:24.375Z,75.97
2023-04-27T21:44:50.956Z,76.16
2023-04-27T21:47:17.421Z,76.10
2023-04-27T21:49:43.891Z,76.06
2023-04-27T21:52:11.074Z,76.17
2023-04-27T21:54:37.553Z,76.42
2023-04-27T21:57:04.167Z,76.70
2023-04-27T21:59:30.741Z,76.55
2023-04-27T22:01:59.267Z,76.13
2023-04-27T22:04:26.068Z,76.10
2023-04-27T22:06:52.719Z,76.38
2023-04-27T22:09:19.268Z,76.33
2023-04-27T22:11:46.506Z,76.17
2023-04-27T22:14:13.044Z,75.79
2023-04-27T22:16:39.636Z,76.20
2023-04-27T22:19:06.120Z,76.12
2023-04-27T22:21:33.205Z,75.60
2023-04-27T22:24:00.246Z,75.97
2023-04-27T22:26:26.802Z,76.00
2023-04-27T22:28:53.636Z,76.06
2023-04-27T22:31:20.385Z,76.14
2023-04-27T22:33:46.899Z,75.75
2023-04-27T22:36:13.353Z,75.67
2023-04-27T22:38:39.863Z,75.70
2023-04-27T22:41:06.312Z,75.69
2023-04-27T22:43:32.726Z,75.51
2023-04-27T22:45:59.145Z,75.23
2023-04-27T22:48:25.945Z,75.33
2023-04-27T22:50:52.448Z,75.63
2023-04-27T22:53:18.922Z,75.55
2023-04-27T22:55:45.362Z,75.54
2023-04-27T22:58:11.955Z,75.50
2023-04-27T23:00:38.472Z,75.30
2023-04-27T23:03:05.194Z,75.71
2023-04-27T23:05:32.418Z,75.84
2023-04-27T23:07:59.829Z,75.68
2023-04-27T23:10:26.767Z,75.86
2023-04-27T23:12:54.707Z,75.51
2023-04-27T23:15:23.953Z,75.73
2023-04-27T23:17:50.426Z,75.81
2023-04-27T23:22:51.406Z,76.47
2023-04-27T23:25:17.921Z,76.30
2023-04-27T23:27:44.333Z,76.64
2023-04-27T23:30:11.729Z,76.41
2023-04-27T23:32:38.296Z,76.74
2023-04-27T23:35:05.699Z,76.81
2023-04-27T23:37:32.170Z,76.46
2023-04-27T23:39:58.778Z,76.82
2023-04-27T23:42:25.283Z,76.34
2023-04-27T23:44:52.993Z,76.56
2023-04-27T23:47:19.468Z,76.63
2023-04-27T23:49:45.977Z,76.64
2023-04-27T23:52:12.578Z,76.97
2023-04-27T23:54:39.157Z,77.17
2023-04-27T23:57:06.527Z,77.09
2023-04-27T23:59:35.975Z,77.70
